Time;durP1;ratioP1;P1;durP2;ratioP2;P2;SDS_P1;SDS_P2;PMS_P1;PMS_P2;Temp;Humidity;BMP_temperature;BMP_pressure;BME280_temperature;BME280_humidity;BME280_pressure;Samples;Min_cycle;Max_cycle;Signal;HPM_P1;HPM_P2
2022/07/18 00:02:02;;;;;;;6.37;2.60;;;;;;;14.81;58.70;99999.63;1771678;81;20995;-43
2022/07/18 00:04:28;;;;;;;8.60;2.55;;;;;;;14.75;58.94;99992.91;1771747;81;20991;-45
2022/07/18 00:06:54;;;;;;;7.22;2.42;;;;;;;14.73;59.15;99993.48;1771660;81;20999;-42
2022/07/18 00:09:22;;;;;;;5.90;2.92;;;;;;;14.70;59.63;100002.96;1771675;81;20949;-46
2022/07/18 00:11:48;;;;;;;;;;;;;;;14.69;59.32;99997.27;1774343;81;20984;-44
2022/07/18 00:14:13;;;;;;;4.55;2.50;;;;;;;14.62;61.26;99994.63;1771716;81;20133;-40
2022/07/18 00:16:39;;;;;;;4.80;2.50;;;;;;;14.63;59.53;99995.86;1771689;81;20964;-39
2022/07/18 00:19:06;;;;;;;6.60;2.90;;;;;;;14.61;59.56;99992.91;1771707;81;20963;-40
2022/07/18 00:21:33;;;;;;;8.28;2.45;;;;;;;14.57;60.04;99989.56;1771626;81;20979;-46
2022/07/18 00:23:58;;;;;;;6.03;2.75;;;;;;;14.54;59.96;99990.61;1771831;81;20980;-42
2022/07/18 00:26:25;;;;;;;5.30;2.90;;;;;;;14.52;60.22;99991.18;1771753;81;20952;-44
2022/07/18 00:28:50;;;;;;;4.10;2.20;;;;;;;14.52;60.42;100000.44;1771676;81;20968;-42
2022/07/18 00:31:16;;;;;;;7.45;2.52;;;;;;;14.49;60.73;99997.12;1771683;80;20980;-40
2022/07/18 00:33:42;;;;;;;6.75;2.50;;;;;;;14.46;60.79;99997.30;1771717;81;20983;-42
2022/07/18 00:36:08;;;;;;;7.12;2.55;;;;;;;14.45;60.64;99987.68;1771628;81;21015;-43
2022/07/18 00:38:34;;;;;;;5.72;2.52;;;;;;;14.42;60.84;99993.98;1771697;81;21015;-41
2022/07/18 00:40:59;;;;;;;9.83;2.90;;;;;;;14.43;60.37;99995.70;1771722;81;21004;-49
2022/07/18 00:43:25;;;;;;;4.50;2.33;;;;;;;14.46;60.16;99998.63;1771652;81;20984;-38
2022/07/18 00:45:52;;;;;;;6.80;2.60;;;;;;;14.46;60.27;100003.47;1771952;80;21039;-46
2022/07/18 00:48:18;;;;;;;8.15;2.62;;;;;;;14.48;60.15;100001.58;1771767;81;21066;-41
2022/07/18 00:50:45;;;;;;;3.98;2.50;;;;;;;14.46;60.49;100007.44;1771686;81;21525;-45
2022/07/18 00:53:12;;;;;;;4.90;2.50;;;;;;;14.44;60.64;100002.69;1771750;81;21031;-43
2022/07/18 00:55:40;;;;;;;11.28;2.60;;;;;;;14.42;60.75;99996.64;1771808;81;20988;-48
2022/07/18 00:58:10;;;;;;;4.30;2.27;;;;;;;14.37;61.27;100006.64;1771710;81;20983;-42
2022/07/18 01:03:20;;;;;;;4.50;2.27;;;;;;;14.34;61.40;100001.55;1771614;81;21426;-42
2022/07/18 01:05:46;;;;;;;3.90;2.47;;;;;;;14.33;61.26;100006.45;1771884;81;20972;-40
2022/07/18 01:08:12;;;;;;;6.00;2.00;;;;;;;14.30;61.80;99998.72;1771838;80;20988;-44
2022/07/18 01:10:38;;;;;;;8.70;3.00;;;;;;;14.29;61.81;100008.91;1771661;81;20988;-45
2022/07/18 01:13:03;;;;;;;6.90;2.58;;;;;;;14.27;61.83;100000.21;1771655;81;20963;-41
2022/07/18 01:15:29;;;;;;;7.05;2.50;;;;;;;14.25;62.21;99998.13;1771695;81;20988;-45
2022/07/18 01:17:55;;;;;;;6.62;2.33;;;;;;;14.24;62.19;100004.34;1771609;81;20983;-44
2022/07/18 01:20:21;;;;;;;4.30;2.50;;;;;;;14.23;62.30;100001.34;1771691;81;21015;-42
2022/07/18 01:22:47;;;;;;;9.63;2.60;;;;;;;14.21;62.22;100002.27;1771563;81;20976;-43
2022/07/18 01:25:16;;;;;;;8.40;2.58;;;;;;;14.21;62.17;100004.08;1771625;81;21028;-49
2022/07/18 01:27:41;;;;;;;4.95;2.47;;;;;;;14.24;61.89;100004.34;1771283;81;21000;-47
2022/07/18 01:30:08;;;;;;;4.28;2.22;;;;;;;14.24;62.29;99997.26;1771769;81;20980;-48
2022/07/18 01:32:34;;;;;;;4.33;2.90;;;;;;;14.23;62.57;100003.98;1771787;81;20956;-41
2022/07/18 01:34:59;;;;;;;9.15;2.60;;;;;;;14.18;63.20;99997.63;1771754;81;20968;-45
2022/07/18 01:37:25;;;;;;;7.97;2.62;;;;;;;14.16;63.20;100004.33;1771647;81;20960;-42
2022/07/18 01:39:51;;;;;;;6.47;2.58;;;;;;;14.14;63.34;100000.92;1771654;81;20968;-42
2022/07/18 01:42:17;;;;;;;10.78;3.25;;;;;;;14.14;63.49;100000.92;1771576;81;21067;-43
2022/07/18 01:44:44;;;;;;;12.37;2.80;;;;;;;14.15;63.67;100003.97;1771644;81;21027;-42
2022/07/18 01:47:11;;;;;;;7.37;2.97;;;;;;;14.15;63.94;100001.32;1771843;81;21450;-44
2022/07/18 01:49:38;;;;;;;9.38;2.87;;;;;;;14.13;64.46;100003.17;1771404;80;21018;-40
2022/07/18 01:52:04;;;;;;;9.80;3.45;;;;;;;14.14;64.26;100007.54;1771885;81;21027;-44
2022/07/18 01:54:33;;;;;;;4.60;2.70;;;;;;;14.15;64.33;100003.97;1771919;81;20964;-43
2022/07/18 01:57:02;;;;;;;6.33;2.90;;;;;;;14.15;64.35;100007.06;1771625;81;21023;-39
2022/07/18 01:59:28;;;;;;;8.50;3.05;;;;;;;14.16;64.44;100013.59;1771586;81;20991;-44
2022/07/18 02:01:54;;;;;;;5.58;3.52;;;;;;;14.18;64.34;100011.70;1771588;81;21019;-39
2022/07/18 02:04:58;;;;;;;7.83;2.70;;;;;;;14.19;64.03;100013.42;1771614;80;20988;-42
2022/07/18 02:06:48;;;;;;;5.87;2.75;;;;;;;14.18;64.26;100018.31;1767311;81;20960;-39
2022/07/18 02:09:13;;;;;;;6.42;2.47;;;;;;;14.20;64.30;100021.72;1771625;81;20952;-39
2022/07/18 02:11:39;;;;;;;5.90;3.10;;;;;;;14.19;64.02;100020.03;1771765;81;20976;-41
2022/07/18 02:14:05;;;;;;;9.23;2.72;;;;;;;14.21;63.72;100021.27;1771602;81;20980;-44
2022/07/18 02:16:32;;;;;;;7.55;2.90;;;;;;;14.24;63.50;100018.90;1771600;81;20967;-42
2022/07/18 02:18:58;;;;;;;5.67;2.70;;;;;;;14.26;63.09;100025.83;1771866;81;20975;-42
2022/07/18 02:21:24;;;;;;;7.08;2.60;;;;;;;14.28;63.01;100019.09;1771648;81;21466;-42
2022/07/18 02:23:54;;;;;;;5.28;2.47;;;;;;;14.27;63.04;100030.16;1771611;81;21465;-46
2022/07/18 02:26:18;;;;;;;5.72;2.83;;;;;;;14.27;62.99;100027.98;1770568;81;20998;-43
2022/07/18 02:28:43;;;;;;;5.45;2.62;;;;;;;14.25;62.88;100032.52;1771571;81;21096;-44
2022/07/18 02:31:09;;;;;;;9.75;3.17;;;;;;;14.21;62.94;100026.56;1771702;81;21536;-43
2022/07/18 02:33:35;;;;;;;4.83;2.42;;;;;;;14.17;63.05;100028.53;1771633;81;21508;-41
2022/07/18 02:36:01;;;;;;;10.15;2.85;;;;;;;14.16;62.89;100028.61;1771658;81;21026;-40
2022/07/18 02:38:27;;;;;;;3.25;2.45;;;;;;;14.12;63.17;100025.30;1771579;81;21015;-39
2022/07/18 02:43:27;;;;;;;7.72;2.37;;;;;;;14.10;63.21;100027.19;1800852;79;23023;-39
2022/07/18 02:45:53;;;;;;;4.47;2.25;;;;;;;14.01;63.22;100026.40;1761597;80;21027;-41
2022/07/18 02:48:19;;;;;;;11.03;2.62;;;;;;;13.97;63.12;100028.81;1761779;81;21428;-39
2022/07/18 02:50:45;;;;;;;7.20;3.08;;;;;;;13.92;63.71;100027.77;1761785;81;21456;-43
2022/07/18 02:53:10;;;;;;;6.72;2.42;;;;;;;13.88;63.26;100020.09;1761712;81;21034;-39
2022/07/18 02:55:36;;;;;;;6.47;2.27;;;;;;;13.85;63.40;100021.13;1761699;81;21515;-42
2022/07/18 02:58:02;;;;;;;6.87;3.05;;;;;;;13.76;64.64;100025.14;1761763;80;21496;-39
2022/07/18 03:00:28;;;;;;;4.83;2.60;;;;;;;13.68;64.62;100021.23;1761686;81;21512;-39
2022/07/18 03:02:54;;;;;;;7.45;3.08;;;;;;;13.61;64.64;100021.59;1761741;81;21430;-38
2022/07/18 03:05:20;;;;;;;5.08;2.08;;;;;;;13.58;64.89;100019.58;1761701;81;21003;-42
2022/07/18 03:07:46;;;;;;;5.53;2.30;;;;;;;13.54;65.23;100018.05;1761807;81;20967;-42
2022/07/18 03:10:11;;;;;;;8.10;2.52;;;;;;;13.53;65.56;100018.98;1760613;80;21586;-38
2022/07/18 03:12:42;;;;;;;6.83;2.83;;;;;;;13.54;65.49;100020.70;1760610;80;21552;-44
2022/07/18 03:15:09;;;;;;;12.15;3.00;;;;;;;13.55;65.57;100019.74;1761681;80;21038;-38
2022/07/18 03:17:34;;;;;;;5.97;2.70;;;;;;;13.53;65.55;100017.66;1761922;81;20999;-45
2022/07/18 03:20:00;;;;;;;7.22;2.70;;;;;;;13.55;65.15;100021.06;1761813;81;21511;-44
2022/07/18 03:22:26;;;;;;;6.03;2.65;;;;;;;13.58;65.18;100019.58;1761718;80;21023;-46
2022/07/18 03:24:51;;;;;;;7.08;3.25;;;;;;;13.59;65.44;100022.63;1761709;81;21034;-45
2022/07/18 03:27:17;;;;;;;5.60;2.42;;;;;;;13.62;65.23;100024.63;1761668;80;20971;-39
2022/07/18 03:29:43;;;;;;;8.05;3.20;;;;;;;13.63;65.22;100025.47;1761665;81;21027;-39
2022/07/18 03:32:09;;;;;;;7.20;2.45;;;;;;;13.64;65.25;100017.91;1761686;81;20995;-45
2022/07/18 03:34:34;;;;;;;5.10;2.85;;;;;;;13.67;65.42;100024.83;1761658;81;20975;-38
2022/07/18 03:37:00;;;;;;;8.10;2.98;;;;;;;13.68;65.27;100022.10;1761691;80;21027;-41
2022/07/18 03:39:26;;;;;;;7.62;3.15;;;;;;;13.74;65.12;100024.38;1761687;81;20995;-40
2022/07/18 03:41:52;;;;;;;5.12;2.60;;;;;;;13.80;64.80;100025.82;1761674;80;21011;-41
2022/07/18 03:44:18;;;;;;;8.13;2.75;;;;;;;13.81;64.72;100019.13;1761928;81;20988;-43
2022/07/18 03:46:44;;;;;;;6.42;2.90;;;;;;;13.83;64.67;100026.98;1761938;81;21626;-44
2022/07/18 03:49:10;;;;;;;22.30;2.95;;;;;;;13.83;64.55;100030.47;1762113;81;21006;-42
2022/07/18 03:51:35;;;;;;;5.62;2.75;;;;;;;13.83;64.88;100029.63;1761942;81;20999;-38
2022/07/18 03:54:01;;;;;;;7.62;3.00;;;;;;;13.83;64.94;100025.18;1761702;81;20999;-41
2022/07/18 03:56:27;;;;;;;11.93;3.12;;;;;;;13.82;65.05;100022.17;1761359;81;20998;-40
2022/07/18 03:58:53;;;;;;;5.60;3.02;;;;;;;13.85;64.60;100025.58;1761343;81;20999;-42
2022/07/18 04:01:18;;;;;;;6.65;2.65;;;;;;;13.87;64.37;100032.47;1761342;81;21003;-41
2022/07/18 04:03:44;;;;;;;6.47;2.80;;;;;;;13.85;64.59;100030.86;1761398;81;20987;-45
2022/07/18 04:06:10;;;;;;;11.45;2.85;;;;;;;13.87;64.35;100028.98;1761380;81;20998;-43
2022/07/18 04:08:36;;;;;;;6.65;2.72;;;;;;;13.85;64.85;100024.25;1761375;81;21031;-42
2022/07/18 04:11:01;;;;;;;10.40;2.92;;;;;;;13.84;65.09;100026.02;1761393;80;21039;-42
2022/07/18 04:13:27;;;;;;;8.03;3.17;;;;;;;13.83;65.11;100030.47;1761328;81;21015;-45
2022/07/18 04:15:53;;;;;;;7.00;2.50;;;;;;;13.83;65.33;100026.50;1761365;81;21176;-40
2022/07/18 04:18:18;;;;;;;5.90;3.17;;;;;;;13.86;65.17;100027.27;1761355;81;20959;-41
2022/07/18 04:20:44;;;;;;;8.98;3.00;;;;;;;13.83;65.72;100029.14;1761381;81;20967;-41
2022/07/18 04:23:10;;;;;;;5.28;3.00;;;;;;;13.86;65.28;100032.55;1761315;81;21385;-42
2022/07/18 04:25:40;;;;;;;4.10;2.62;;;;;;;13.88;65.51;100033.31;1761347;81;20968;-39
2022/07/18 04:28:09;;;;;;;6.83;3.05;;;;;;;13.87;65.25;100028.98;1761238;81;21007;-37
2022/07/18 04:30:37;;;;;;;7.22;2.47;;;;;;;13.92;64.73;100026.93;1761382;81;21512;-39
2022/07/18 04:33:08;;;;;;;4.75;2.72;;;;;;;13.95;64.29;100026.73;1761422;81;20987;-40
2022/07/18 04:35:39;;;;;;;6.10;2.50;;;;;;;13.95;65.29;100030.70;1761404;81;21050;-39
2022/07/18 04:38:07;;;;;;;9.95;2.83;;;;;;;13.99;64.66;100026.96;1761395;81;21003;-40
2022/07/18 04:40:33;;;;;;;5.78;3.25;;;;;;;14.03;64.64;100035.09;1761442;81;21003;-38
2022/07/18 04:42:59;;;;;;;4.60;2.92;;;;;;;14.08;64.65;100030.84;1753352;81;21027;-42
2022/07/18 04:45:25;;;;;;;4.67;2.75;;;;;;;14.15;64.38;100033.51;1747992;81;20988;-43
2022/07/18 04:47:52;;;;;;;6.20;2.83;;;;;;;14.19;64.37;100033.25;1748004;81;20992;-40
2022/07/18 04:50:19;;;;;;;6.72;2.92;;;;;;;14.26;64.36;100040.83;1748194;81;20987;-45
2022/07/18 04:52:46;;;;;;;5.40;2.60;;;;;;;14.28;64.26;100040.26;1748361;82;20999;-40
2022/07/18 04:55:15;;;;;;;6.50;2.67;;;;;;;14.34;64.00;100038.59;1748108;81;20991;-46
2022/07/18 04:57:41;;;;;;;10.50;2.90;;;;;;;14.36;64.28;100038.03;1748034;81;20980;-43
2022/07/18 05:00:12;;;;;;;13.17;3.20;;;;;;;14.38;64.02;100042.75;1748306;81;20996;-39
2022/07/18 05:02:42;;;;;;;5.50;2.47;;;;;;;14.39;64.16;100041.34;1747863;81;21481;-42
2022/07/18 05:05:10;;;;;;;13.28;3.30;;;;;;;14.45;64.26;100039.28;1747997;81;20972;-42
2022/07/18 05:07:38;;;;;;;8.48;2.30;;;;;;;14.44;64.13;100035.77;1747964;81;21043;-42
2022/07/18 05:10:07;;;;;;;4.83;2.80;;;;;;;14.48;63.77;100035.11;1748089;82;21108;-42
2022/07/18 05:12:35;;;;;;;8.18;2.72;;;;;;;14.48;63.77;100029.37;1748027;81;20972;-44
2022/07/18 05:15:04;;;;;;;5.10;2.75;;;;;;;14.50;63.96;100033.25;1747933;81;21465;-42
2022/07/18 05:17:29;;;;;;;8.03;3.00;;;;;;;14.55;63.53;100036.00;1748025;81;21027;-44
2022/07/18 05:19:55;;;;;;;6.35;2.92;;;;;;;14.59;63.51;100039.34;1747974;81;21030;-39
2022/07/18 05:22:21;;;;;;;7.70;3.98;;;;;;;14.62;63.52;100039.14;1747958;81;21028;-42
2022/07/18 05:24:47;;;;;;;9.58;3.40;;;;;;;14.67;63.37;100032.26;1748095;81;20996;-40
2022/07/18 05:27:13;;;;;;;7.08;3.70;;;;;;;14.70;63.22;100034.73;1748070;81;21485;-43
2022/07/18 05:29:39;;;;;;;10.48;4.65;;;;;;;14.72;63.30;100031.03;1748098;81;20996;-43
2022/07/18 05:32:07;;;;;;;9.20;2.70;;;;;;;14.76;63.13;100031.70;1748024;81;21520;-42
2022/07/18 05:34:33;;;;;;;8.75;2.98;;;;;;;14.80;63.00;100039.83;1747921;82;20998;-39
2022/07/18 05:36:59;;;;;;;11.33;2.95;;;;;;;14.81;63.25;100038.89;1748006;81;20999;-41
2022/07/18 05:39:25;;;;;;;12.43;2.98;;;;;;;14.86;63.23;100034.17;1748019;81;20964;-41
2022/07/18 05:41:51;;;;;;;5.60;3.10;;;;;;;14.91;63.03;100036.05;1748078;82;20984;-43
2022/07/18 05:44:19;;;;;;;7.53;3.10;;;;;;;14.96;62.75;100035.30;1760987;81;20983;-42
2022/07/18 05:46:45;;;;;;;;;;;;;;;15.01;62.97;100035.47;1763675;81;21018;-46
2022/07/18 05:49:11;;;;;;;10.25;3.17;;;;;;;15.00;63.49;100033.30;1761009;80;20547;-42
2022/07/18 05:51:36;;;;;;;9.20;3.08;;;;;;;15.04;63.04;100029.52;1761164;81;21003;-44
2022/07/18 05:54:03;;;;;;;4.17;2.62;;;;;;;15.10;62.96;100028.31;1761267;81;20991;-43
2022/07/18 05:56:28;;;;;;;11.38;2.98;;;;;;;15.13;62.99;100032.06;1761084;80;21500;-41
2022/07/18 05:58:54;;;;;;;13.35;3.15;;;;;;;15.18;63.06;100029.98;1761140;81;21430;-41
2022/07/18 06:01:20;;;;;;;18.40;3.58;;;;;;;15.20;63.29;100029.41;1761053;81;21575;-39
2022/07/18 06:03:47;;;;;;;11.18;2.65;;;;;;;15.24;63.06;100029.59;1761094;81;20995;-39
2022/07/18 06:06:14;;;;;;;11.57;3.20;;;;;;;15.28;63.08;100024.95;1760425;80;21423;-37
2022/07/18 06:08:40;;;;;;;12.37;2.80;;;;;;;15.33;62.85;100021.54;1761313;81;21052;-40
2022/07/18 06:11:08;;;;;;;9.25;3.62;;;;;;;15.39;62.83;100028.25;1761081;81;20995;-41
2022/07/18 06:13:37;;;;;;;11.03;2.87;;;;;;;15.43;62.95;100023.16;1761029;80;21007;-44
2022/07/18 06:16:05;;;;;;;8.73;2.77;;;;;;;15.44;63.24;100017.73;1759036;80;20974;-42
2022/07/18 06:18:31;;;;;;;;;;;;;;;15.48;63.17;100019.25;1761983;81;20998;-39
2022/07/18 06:20:56;;;;;;;7.72;2.90;;;;;;;15.48;64.03;100022.36;1759399;81;20114;-40
2022/07/18 06:23:22;;;;;;;6.42;2.98;;;;;;;15.57;63.19;100020.44;1759898;80;20967;-47
2022/07/18 06:25:48;;;;;;;8.98;3.37;;;;;;;15.59;63.92;100014.59;1760723;80;20979;-41
2022/07/18 06:28:13;;;;;;;4.83;2.98;;;;;;;15.67;63.32;100020.72;1759231;81;20951;-45
2022/07/18 06:30:39;;;;;;;9.65;3.50;;;;;;;15.74;63.11;100013.61;1762632;80;21007;-41
2022/07/18 06:33:07;;;;;;;12.00;3.05;;;;;;;15.80;63.25;100021.64;1771311;80;20974;-40
2022/07/18 06:35:33;;;;;;;6.65;3.12;;;;;;;15.87;63.45;100016.80;1764974;80;20968;-40
2022/07/18 06:37:59;;;;;;;5.30;2.75;;;;;;;15.93;63.00;100019.03;1760544;80;21058;-41
2022/07/18 06:40:25;;;;;;;5.42;3.30;;;;;;;15.99;62.66;100025.28;1758022;81;21034;-42
2022/07/18 06:42:52;;;;;;;4.28;2.75;;;;;;;16.04;62.06;100029.78;1755981;80;21003;-39
2022/07/18 06:45:18;;;;;;;5.55;2.70;;;;;;;16.11;61.74;100024.44;1741448;81;21408;-40
2022/07/18 06:47:44;;;;;;;6.45;2.87;;;;;;;16.19;61.27;100035.02;1738026;82;20995;-44
2022/07/18 06:50:12;;;;;;;6.72;2.67;;;;;;;16.27;61.01;100036.70;1744277;81;20976;-46
2022/07/18 06:52:40;;;;;;;6.45;2.70;;;;;;;16.33;60.91;100028.80;1745654;81;20964;-38
2022/07/18 06:55:07;;;;;;;5.72;2.17;;;;;;;16.40;60.75;100024.28;1740124;82;21007;-42
2022/07/18 06:57:33;;;;;;;5.37;2.87;;;;;;;16.45;60.25;100031.47;1744668;81;21543;-45
2022/07/18 06:59:59;;;;;;;5.33;2.65;;;;;;;16.53;60.19;100027.44;1744751;82;20960;-43
2022/07/18 07:02:25;;;;;;;6.25;2.77;;;;;;;16.61;60.01;100024.64;1743354;81;20940;-40
2022/07/18 07:04:51;;;;;;;4.03;1.90;;;;;;;16.68;59.80;100026.38;1744734;81;20944;-41
2022/07/18 07:07:16;;;;;;;8.38;2.77;;;;;;;16.78;59.81;100026.61;1740488;81;20960;-41
2022/07/18 07:09:42;;;;;;;6.72;3.00;;;;;;;16.86;59.80;100019.84;1740220;82;20960;-41
2022/07/18 07:12:09;;;;;;;4.87;1.95;;;;;;;16.98;59.72;100019.93;1741945;81;20948;-39
2022/07/18 07:14:36;;;;;;;4.35;1.95;;;;;;;17.06;58.52;100018.89;1744334;81;20955;-40
2022/07/18 07:17:03;;;;;;;5.58;2.67;;;;;;;17.17;57.83;100022.12;1745650;81;21600;-39
2022/07/18 07:19:30;;;;;;;3.25;1.80;;;;;;;17.27;57.43;100014.72;1747094;81;20952;-39
2022/07/18 07:21:55;;;;;;;3.87;1.95;;;;;;;17.37;56.92;100024.69;1745255;81;21090;-42
2022/07/18 07:24:23;;;;;;;3.25;2.00;;;;;;;17.46;56.59;100025.34;1744890;81;20956;-43
2022/07/18 07:26:49;;;;;;;2.60;1.98;;;;;;;17.53;55.86;100021.77;1743486;81;20963;-42
2022/07/18 07:29:15;;;;;;;6.72;1.85;;;;;;;17.61;55.95;100021.59;1743468;81;21394;-42
2022/07/18 07:31:42;;;;;;;3.83;1.82;;;;;;;17.70;55.67;100028.05;1744074;81;20936;-38
2022/07/18 07:34:09;;;;;;;3.98;1.60;;;;;;;17.80;55.52;100028.22;1744266;81;21023;-42
2022/07/18 07:36:35;;;;;;;5.85;1.55;;;;;;;17.90;53.58;100029.28;1742606;82;21156;-41
2022/07/18 07:39:02;;;;;;;3.85;1.77;;;;;;;18.04;53.46;100026.91;1746955;81;20944;-39
2022/07/18 07:41:28;;;;;;;4.67;1.72;;;;;;;18.14;52.88;100023.09;1744846;81;21590;-37
2022/07/18 07:43:54;;;;;;;6.62;1.70;;;;;;;18.22;51.78;100018.02;1753373;81;21003;-40
2022/07/18 07:46:19;;;;;;;4.40;2.00;;;;;;;18.32;52.02;100027.02;1758266;81;20944;-46
2022/07/18 07:48:47;;;;;;;6.65;2.08;;;;;;;18.42;51.77;100024.00;1759350;81;20948;-42
2022/07/18 07:51:13;;;;;;;7.47;2.35;;;;;;;18.52;51.60;100028.61;1759088;81;21120;-44
2022/07/18 07:53:39;;;;;;;4.85;1.90;;;;;;;18.57;49.87;100025.12;1759852;80;20947;-43
2022/07/18 07:56:06;;;;;;;8.60;2.33;;;;;;;18.71;51.23;100021.41;1760142;80;20932;-43
2022/07/18 07:58:32;;;;;;;2.83;1.98;;;;;;;18.88;50.70;100018.78;1760787;80;20987;-46
2022/07/18 08:00:58;;;;;;;2.92;1.80;;;;;;;18.97;49.93;100020.72;1759192;81;20931;-41
2022/07/18 08:03:25;;;;;;;5.55;1.72;;;;;;;19.07;49.46;100015.03;1758381;81;21402;-43
2022/07/18 08:05:51;;;;;;;3.55;2.10;;;;;;;19.27;49.30;100023.27;1759965;80;21417;-42
2022/07/18 08:08:18;;;;;;;2.77;1.80;;;;;;;19.43;49.16;100026.86;1759826;81;20960;-44
2022/07/18 08:10:47;;;;;;;3.35;1.50;;;;;;;19.50;47.58;100028.94;1759494;81;20988;-42
2022/07/18 08:13:14;;;;;;;3.77;1.50;;;;;;;19.59;47.71;100019.80;1759584;80;20967;-46
2022/07/18 08:15:40;;;;;;;6.97;1.70;;;;;;;19.72;48.18;100020.52;1759864;81;21452;-45
2022/07/18 08:18:06;;;;;;;5.83;1.65;;;;;;;19.79;47.55;100024.38;1759720;81;21857;-45
2022/07/18 08:20:33;;;;;;;3.00;1.57;;;;;;;19.79;46.58;100019.05;1759521;80;21409;-46
2022/07/18 08:23:03;;;;;;;9.80;1.57;;;;;;;19.86;46.86;100017.57;1759754;81;20952;-40
2022/07/18 08:25:32;;;;;;;4.70;1.70;;;;;;;19.89;46.76;100017.33;1757631;81;20947;-42
2022/07/18 08:27:59;;;;;;;1.82;1.07;;;;;;;20.00;47.03;100016.94;1759795;81;21422;-42
2022/07/18 08:30:26;;;;;;;2.60;1.70;;;;;;;20.20;46.46;100016.10;1759703;80;20932;-40
2022/07/18 08:32:52;;;;;;;4.33;1.62;;;;;;;20.31;45.87;100013.86;1760601;80;20947;-46
2022/07/18 08:35:18;;;;;;;3.77;1.52;;;;;;;20.52;44.95;100024.56;1760389;80;21123;-44
2022/07/18 08:37:44;;;;;;;6.33;1.83;;;;;;;20.60;45.00;100016.72;1761298;81;20975;-45
2022/07/18 08:40:11;;;;;;;3.83;1.62;;;;;;;20.76;44.72;100022.97;1760778;80;21153;-45
2022/07/18 08:42:37;;;;;;;3.20;1.40;;;;;;;21.06;44.27;100026.13;1761353;80;20975;-40
2022/07/18 08:45:05;;;;;;;3.05;1.10;;;;;;;21.19;43.11;100027.72;1753764;81;21518;-44
2022/07/18 08:47:31;;;;;;;;;;;;;;;21.39;43.25;100017.93;1754464;81;20984;-43
2022/07/18 08:49:58;;;;;;;3.12;1.17;;;;;;;21.56;42.72;100025.84;1751001;81;20148;-44
2022/07/18 08:52:24;;;;;;;2.42;1.30;;;;;;;21.62;42.56;100022.10;1751584;81;21438;-41
2022/07/18 08:54:50;;;;;;;2.20;1.37;;;;;;;21.63;42.57;100016.28;1752542;81;20991;-41
2022/07/18 08:57:18;;;;;;;3.45;1.30;;;;;;;21.68;42.08;100023.87;1751570;82;20956;-44
2022/07/18 08:59:44;;;;;;;3.33;1.50;;;;;;;21.62;41.74;100024.78;1752358;81;20978;-42
2022/07/18 09:02:11;;;;;;;2.95;1.80;;;;;;;21.69;41.65;100018.39;1750592;82;21536;-43
2022/07/18 09:04:41;;;;;;;3.25;1.20;;;;;;;21.77;41.92;100013.17;1753060;81;20975;-44
2022/07/18 09:07:10;;;;;;;2.08;1.17;;;;;;;21.74;41.07;100016.15;1751340;82;21409;-38
2022/07/18 09:09:37;;;;;;;2.05;1.50;;;;;;;21.83;41.56;100011.30;1752438;81;20964;-44
2022/07/18 09:12:06;;;;;;;;;;;;;;;21.91;41.34;100021.80;1752683;81;21424;-42
2022/07/18 09:14:38;;;;;;;3.85;1.30;;;;;;;21.92;39.86;100014.10;1751972;81;20110;-44
2022/07/18 09:17:14;;;;;;;2.58;1.22;;;;;;;22.04;41.33;100018.34;1749595;81;20975;-43
2022/07/18 09:20:00;;;;;;;3.62;1.30;;;;;;;22.12;41.04;100007.78;1751710;82;20928;-41
2022/07/18 09:22:32;;;;;;;2.50;1.20;;;;;;;22.23;40.61;100011.64;1742027;82;21461;-45
2022/07/18 09:25:13;;;;;;;4.40;1.32;;;;;;;22.20;39.18;100013.25;1755327;80;20971;-40
2022/07/18 09:27:46;;;;;;;2.50;1.30;;;;;;;22.34;40.56;100009.81;1752457;81;20998;-45
2022/07/18 09:30:34;;;;;;;2.33;1.40;;;;;;;22.36;40.29;100012.72;1751185;81;21079;-42
2022/07/18 09:33:09;;;;;;;2.60;1.32;;;;;;;22.61;40.61;100019.77;1751213;82;20948;-46
2022/07/18 09:35:50;;;;;;;3.80;1.60;;;;;;;22.88;39.71;100008.27;1752984;81;21493;-47
2022/07/18 09:38:22;;;;;;;2.37;1.45;;;;;;;23.32;39.98;100003.66;1734049;82;20928;-42
2022/07/18 09:40:53;;;;;;;4.10;1.35;;;;;;;23.51;39.20;99999.52;1753697;81;20956;-45
2022/07/18 09:43:22;;;;;;;3.95;1.42;;;;;;;23.56;38.30;100001.77;1750723;80;20932;-44
2022/07/18 09:45:51;;;;;;;2.50;1.55;;;;;;;23.46;37.56;100009.02;1751645;81;20996;-40
2022/07/18 09:48:20;;;;;;;2.05;1.40;;;;;;;23.67;37.61;100004.22;1751665;81;20960;-40
2022/07/18 09:50:55;;;;;;;1.92;1.07;;;;;;;23.95;38.01;100006.87;1751641;82;21784;-42
2022/07/18 09:53:29;;;;;;;3.08;1.65;;;;;;;24.08;37.99;100007.31;1750715;82;20999;-41
2022/07/18 09:56:02;;;;;;;3.08;1.70;;;;;;;24.22;37.77;100006.44;1750745;82;20944;-38
2022/07/18 09:58:35;;;;;;;3.27;1.40;;;;;;;24.26;37.48;100003.77;1748489;81;20952;-41
2022/07/18 10:01:04;;;;;;;4.42;1.52;;;;;;;24.28;37.61;100005.30;1751752;80;21006;-42
2022/07/18 10:03:30;;;;;;;3.55;1.50;;;;;;;24.27;37.36;100008.16;1748868;81;21041;-40
2022/07/18 10:05:58;;;;;;;3.15;1.30;;;;;;;24.24;37.19;100011.16;1751789;82;20951;-41
2022/07/18 10:08:28;;;;;;;2.65;1.40;;;;;;;24.34;37.31;100014.09;1750830;81;20959;-42
2022/07/18 10:10:59;;;;;;;2.65;1.37;;;;;;;24.55;37.11;100009.40;1751546;81;20952;-45
2022/07/18 10:13:27;;;;;;;3.35;1.12;;;;;;;24.90;36.38;100016.01;1750195;81;20929;-38
2022/07/18 10:15:53;;;;;;;2.60;1.60;;;;;;;25.07;35.88;100002.64;1752398;81;21443;-44
2022/07/18 10:18:23;;;;;;;5.35;1.45;;;;;;;25.44;35.55;100005.48;1752847;81;20955;-40
2022/07/18 10:21:10;;;;;;;3.65;1.47;;;;;;;25.85;35.53;100003.73;1753462;81;20951;-42
2022/07/18 10:23:47;;;;;;;1.98;1.20;;;;;;;26.41;32.66;100012.52;1737247;82;21544;-43
2022/07/18 10:26:23;;;;;;;2.42;1.92;;;;;;;26.87;34.06;100006.55;1730437;82;20955;-39
2022/07/18 10:29:03;;;;;;;1.77;1.40;;;;;;;27.03;33.61;100015.95;1752828;82;20995;-41
2022/07/18 10:31:37;;;;;;;3.37;1.60;;;;;;;26.73;32.61;100014.36;1752826;81;20932;-39
2022/07/18 10:34:10;;;;;;;2.98;1.25;;;;;;;26.59;33.09;100009.63;1753178;81;21495;-42
2022/07/18 10:37:02;;;;;;;5.03;1.72;;;;;;;26.34;33.14;100009.67;1753249;81;20967;-40
2022/07/18 10:39:34;;;;;;;2.85;1.60;;;;;;;26.19;33.28;100010.00;1750063;82;21026;-39
2022/07/18 10:42:05;;;;;;;2.45;1.45;;;;;;;26.01;32.61;100008.33;1751171;81;21437;-42
2022/07/18 10:44:40;;;;;;;6.72;1.50;;;;;;;25.85;32.62;100008.28;1749213;80;21527;-43
2022/07/18 10:47:09;;;;;;;4.33;1.27;;;;;;;25.83;33.36;100004.89;1748230;81;21095;-38
2022/07/18 10:49:58;;;;;;;5.00;1.30;;;;;;;26.33;33.94;100003.09;1760105;81;20932;-40
2022/07/18 10:52:32;;;;;;;2.85;1.45;;;;;;;26.67;33.20;99993.95;1739452;81;21010;-43
2022/07/18 10:55:16;;;;;;;1.92;1.17;;;;;;;26.85;32.55;99997.80;1758664;81;20991;-43
2022/07/18 10:57:40;;;;;;;1.90;1.55;;;;;;;26.83;32.57;100007.92;1757012;81;20971;-44
2022/07/18 11:00:11;;;;;;;2.98;1.52;;;;;;;26.69;32.04;100008.98;1759694;80;21300;-43
2022/07/18 11:02:47;;;;;;;4.75;1.57;;;;;;;26.76;32.42;100001.88;1762699;79;21447;-44
2022/07/18 11:05:30;;;;;;;2.90;1.45;;;;;;;26.65;32.01;100004.08;1753540;81;21447;-37
2022/07/18 11:08:04;;;;;;;2.15;1.20;;;;;;;26.78;32.01;100004.41;1758637;81;21019;-39
2022/07/18 11:10:50;;;;;;;6.45;1.40;;;;;;;26.80;31.70;100010.47;1760516;80;20959;-44
2022/07/18 11:13:36;;;;;;;5.22;1.42;;;;;;;26.74;31.35;99997.16;1758743;80;20993;-42
2022/07/18 11:16:12;;;;;;;4.40;1.30;;;;;;;26.71;31.79;99995.32;1740807;81;21025;-40
2022/07/18 11:18:50;;;;;;;2.60;1.60;;;;;;;26.68;32.01;99998.35;1759717;81;21445;-46
2022/07/18 11:21:33;;;;;;;1.42;1.32;;;;;;;26.66;32.16;99998.52;1759660;81;21533;-42
2022/07/18 11:24:06;;;;;;;5.05;1.20;;;;;;;26.45;31.79;99996.35;1741851;80;21024;-44
2022/07/18 11:26:35;;;;;;;3.83;1.40;;;;;;;26.34;32.26;99986.75;1759429;81;20939;-46
2022/07/18 11:29:04;;;;;;;3.02;1.45;;;;;;;26.31;32.32;99988.95;1760019;80;21064;-42
2022/07/18 11:31:33;;;;;;;5.58;1.87;;;;;;;26.30;32.57;99987.25;1758416;81;20971;-41
2022/07/18 11:34:01;;;;;;;2.25;1.30;;;;;;;26.12;32.37;99982.03;1765630;80;20968;-42
2022/07/18 11:36:32;;;;;;;2.98;1.30;;;;;;;26.17;32.91;99985.07;1759944;81;21167;-46